Time;durP1;ratioP1;P1;durP2;ratioP2;P2;SDS_P1;SDS_P2;PMS_P1;PMS_P2;Temp;Humidity;BMP_temperature;BMP_pressure;BME280_temperature;BME280_humidity;BME280_pressure;Samples;Min_cycle;Max_cycle;Signal;HPM_P1;HPM_P2
2022/01/27 00:01:42;;;;;;;17.65;9.68;;;-2.50;99.90;;;;;;5008879;28;20395;-86
2022/01/27 00:04:18;;;;;;;19.10;10.63;;;-2.50;99.90;;;;;;5009151;28;20391;-86
2022/01/27 00:06:46;;;;;;;16.23;8.85;;;-2.50;99.90;;;;;;4991454;28;20396;-86
2022/01/27 00:09:27;;;;;;;21.10;11.10;;;-2.50;99.90;;;;;;5040999;28;20885;-89
2022/01/27 00:11:55;;;;;;;15.27;8.90;;;-2.50;99.90;;;;;;5007736;28;20400;-88
2022/01/27 00:14:23;;;;;;;16.70;9.55;;;-2.50;99.90;;;;;;5007669;28;20919;-89
2022/01/27 00:16:59;;;;;;;15.80;9.20;;;-2.40;99.90;;;;;;5009176;28;20458;-88
2022/01/27 00:19:26;;;;;;;20.25;10.63;;;-2.30;99.90;;;;;;5007995;28;20407;-88
2022/01/27 00:21:54;;;;;;;17.50;10.20;;;-2.40;99.90;;;;;;5024255;28;20475;-88
2022/01/27 00:24:22;;;;;;;17.67;10.27;;;-2.40;99.90;;;;;;5007829;28;20474;-84
2022/01/27 00:26:50;;;;;;;19.20;10.07;;;-2.40;99.90;;;;;;5007507;28;20917;-86
2022/01/27 00:29:18;;;;;;;18.83;10.77;;;-2.40;99.90;;;;;;5007517;28;20410;-87
2022/01/27 00:31:45;;;;;;;17.40;10.32;;;-2.40;99.90;;;;;;4991837;28;20420;-87
2022/01/27 00:34:13;;;;;;;16.88;10.27;;;-2.30;99.90;;;;;;5007278;28;20408;-89
2022/01/27 00:36:41;;;;;;;19.00;11.20;;;-2.30;99.90;;;;;;5008694;28;20961;-87
2022/01/27 00:39:08;;;;;;;14.45;8.70;;;-2.30;99.90;;;;;;5007526;28;20411;-88
2022/01/27 00:41:36;;;;;;;16.50;9.52;;;-2.30;99.90;;;;;;5008798;28;20816;-87
2022/01/27 00:44:04;;;;;;;16.42;9.95;;;-2.30;99.90;;;;;;5011794;28;20765;-88
2022/01/27 00:46:35;;;;;;;17.23;9.50;;;-2.20;99.90;;;;;;5010954;28;20478;-88
2022/01/27 00:49:03;;;;;;;17.43;9.80;;;-2.20;99.90;;;;;;5010553;28;20395;-86
2022/01/27 00:51:36;;;;;;;19.67;10.52;;;-2.20;99.90;;;;;;5011112;28;20402;-86
2022/01/27 00:54:13;;;;;;;25.58;9.60;;;-2.20;99.90;;;;;;5010842;28;20407;-86
2022/01/27 00:56:49;;;;;;;17.47;8.57;;;-2.20;99.90;;;;;;5010855;28;20395;-87
2022/01/27 01:02:09;;;;;;;21.95;9.30;;;-2.10;99.90;;;;;;5043582;28;20423;-88
2022/01/27 01:04:41;;;;;;;17.70;8.73;;;-2.10;99.90;;;;;;5027243;28;20407;-88
2022/01/27 01:07:10;;;;;;;14.18;8.15;;;-2.10;99.90;;;;;;4993867;28;20399;-88
2022/01/27 01:34:22;;;;;;;18.65;8.65;;;-1.90;99.90;;;;;;5010016;28;20411;-87
2022/01/27 01:37:04;;;;;;;23.20;7.47;;;-1.90;99.90;;;;;;5042950;28;20402;-87
2022/01/27 01:39:35;;;;;;;14.35;7.65;;;-1.80;99.90;;;;;;5026426;28;20396;-88
2022/01/27 01:42:08;;;;;;;17.85;7.80;;;-1.90;99.90;;;;;;5043153;27;20407;-87
2022/01/27 01:44:37;;;;;;;13.25;7.13;;;-1.90;99.90;;;;;;5026556;28;20414;-87
2022/01/27 01:47:06;;;;;;;22.15;6.95;;;-1.80;99.90;;;;;;4993760;28;20399;-86
2022/01/27 01:49:34;;;;;;;23.40;6.80;;;-1.80;99.90;;;;;;5011009;28;20927;-87
2022/01/27 01:52:07;;;;;;;11.95;7.07;;;-1.70;99.90;;;;;;5009695;28;20392;-85
2022/01/27 01:54:35;;;;;;;13.88;6.97;;;-1.70;99.90;;;;;;5025483;28;20979;-88
2022/01/27 01:57:03;;;;;;;10.40;6.72;;;-1.70;99.90;;;;;;5042688;28;20877;-87
2022/01/27 01:59:30;;;;;;;13.90;7.57;;;-1.70;99.90;;;;;;5042486;28;20820;-88
2022/01/27 02:01:58;;;;;;;17.13;6.67;;;-1.70;99.90;;;;;;5009873;28;20384;-88
2022/01/27 02:04:26;;;;;;;14.93;7.85;;;-1.70;99.90;;;;;;5010743;28;20399;-86
2022/01/27 02:06:58;;;;;;;14.68;7.22;;;-1.70;99.90;;;;;;4993476;28;20833;-86
2022/01/27 02:17:58;;;;;;;15.55;8.02;;;-1.60;99.90;;;;;;5010480;28;20391;-87
2022/01/27 02:20:31;;;;;;;19.10;9.90;;;-1.60;99.90;;;;;;5010529;28;20387;-87
2022/01/27 02:22:58;;;;;;;15.68;8.68;;;-1.60;99.90;;;;;;5010372;28;20391;-88
2022/01/27 02:25:26;;;;;;;19.90;10.10;;;-1.60;99.90;;;;;;4993181;28;20893;-88
2022/01/27 02:27:56;;;;;;;23.87;10.87;;;-1.60;99.90;;;;;;5009200;28;20486;-89
2022/01/27 02:30:24;;;;;;;21.58;13.40;;;-1.60;99.90;;;;;;5009198;28;20441;-89
2022/01/27 02:32:54;;;;;;;23.30;12.80;;;-1.50;99.90;;;;;;5025704;28;20491;-88
2022/01/27 02:35:25;;;;;;;24.95;14.60;;;-1.50;99.90;;;;;;5009149;28;20422;-87
2022/01/27 02:37:54;;;;;;;22.08;12.30;;;-1.50;99.90;;;;;;5009248;28;20418;-86
2022/01/27 02:40:48;;;;;;;29.52;12.82;;;-1.50;99.90;;;;;;4992823;28;20404;-87
2022/01/27 02:43:16;;;;;;;22.38;11.18;;;-1.40;99.90;;;;;;5009360;28;20395;-87
2022/01/27 02:45:59;;;;;;;24.25;12.57;;;-1.50;99.90;;;;;;5009239;28;20471;-86
2022/01/27 02:48:29;;;;;;;19.10;11.95;;;-1.30;99.90;;;;;;5009037;28;20407;-88
2022/01/27 02:50:57;;;;;;;20.10;11.15;;;-1.40;99.90;;;;;;5008981;28;20940;-88
2022/01/27 02:53:24;;;;;;;22.37;10.87;;;-1.40;99.90;;;;;;4992704;28;20406;-88
2022/01/27 02:55:52;;;;;;;23.48;11.43;;;-1.40;99.90;;;;;;4992486;28;20407;-89
2022/01/27 02:58:20;;;;;;;34.03;10.80;;;-1.30;99.90;;;;;;5008773;28;20457;-88
2022/01/27 03:00:47;;;;;;;19.20;9.13;;;-1.30;99.90;;;;;;5008780;28;20398;-87
2022/01/27 03:03:15;;;;;;;26.53;10.73;;;-1.30;99.90;;;;;;5008846;28;20427;-89
2022/01/27 03:05:43;;;;;;;23.10;10.20;;;-1.30;99.90;;;;;;5008691;28;20522;-88
2022/01/27 03:08:10;;;;;;;20.23;11.57;;;-1.40;99.90;;;;;;5008665;28;20413;-88
2022/01/27 03:10:43;;;;;;;35.70;12.10;;;-1.30;99.90;;;;;;4992359;28;20427;-88
2022/01/27 03:13:11;;;;;;;20.95;10.43;;;-1.20;99.90;;;;;;5008500;28;20473;-88
2022/01/27 03:15:38;;;;;;;46.55;10.13;;;-1.20;99.90;;;;;;5008573;28;20403;-88
2022/01/27 03:18:06;;;;;;;24.00;9.70;;;-1.10;99.90;;;;;;5025010;28;20758;-87
2022/01/27 03:20:34;;;;;;;26.05;9.15;;;-1.10;99.90;;;;;;5008511;28;20399;-87
2022/01/27 03:23:02;;;;;;;29.38;9.65;;;-1.10;99.90;;;;;;5025023;28;20770;-88
2022/01/27 03:25:30;;;;;;;27.10;8.68;;;-1.10;99.90;;;;;;5008563;28;20437;-88
2022/01/27 03:27:58;;;;;;;38.55;10.95;;;-1.10;99.90;;;;;;5008681;28;20954;-88
2022/01/27 03:30:26;;;;;;;50.70;9.20;;;-1.10;99.90;;;;;;4992046;28;20399;-88
2022/01/27 03:32:54;;;;;;;27.70;8.60;;;-1.10;99.90;;;;;;5025088;28;20908;-87
2022/01/27 03:35:21;;;;;;;30.50;8.03;;;-1.10;99.90;;;;;;5024937;28;20422;-88
2022/01/27 03:37:49;;;;;;;12.43;7.30;;;-1.10;99.90;;;;;;4992139;28;20395;-87
2022/01/27 03:40:17;;;;;;;12.38;6.68;;;-1.10;99.90;;;;;;5024874;28;20406;-88
2022/01/27 03:42:51;;;;;;;11.68;6.35;;;-1.00;99.90;;;;;;5008408;28;20396;-89
2022/01/27 03:45:18;;;;;;;10.68;5.50;;;-1.00;99.90;;;;;;5009263;28;20834;-88
2022/01/27 03:47:46;;;;;;;8.02;4.43;;;-1.00;99.90;;;;;;5024730;28;20426;-87
2022/01/27 03:50:14;;;;;;;6.57;3.90;;;-1.00;99.90;;;;;;5007875;28;20955;-87
2022/01/27 03:52:41;;;;;;;6.30;3.60;;;-1.00;99.90;;;;;;5024530;28;20460;-87
2022/01/27 03:55:10;;;;;;;5.00;2.63;;;-0.90;99.90;;;;;;5007913;28;20431;-86
2022/01/27 03:57:37;;;;;;;5.63;3.03;;;-0.90;99.90;;;;;;5024662;28;20414;-88
2022/01/27 04:00:07;;;;;;;8.55;2.40;;;-0.90;99.90;;;;;;5024044;28;20479;-87
2022/01/27 04:02:54;;;;;;;9.13;2.92;;;-0.90;99.90;;;;;;5019926;28;20393;-87
2022/01/27 04:05:22;;;;;;;9.73;2.90;;;-0.90;99.90;;;;;;5004908;28;20432;-88
2022/01/27 04:07:56;;;;;;;7.43;3.10;;;-0.90;99.90;;;;;;5090197;28;20425;-88
2022/01/27 04:10:24;;;;;;;13.45;3.05;;;-0.90;99.90;;;;;;4988349;28;20401;-88
2022/01/27 04:12:52;;;;;;;24.80;3.03;;;-0.80;99.90;;;;;;5021218;28;20393;-87
2022/01/27 04:15:20;;;;;;;14.18;2.75;;;-0.70;99.90;;;;;;5090297;28;20416;-87
2022/01/27 04:17:48;;;;;;;6.43;2.50;;;-0.70;99.90;;;;;;5007350;28;20446;-88
2022/01/27 04:20:16;;;;;;;5.97;2.38;;;-0.70;99.90;;;;;;5008284;28;20462;-88
2022/01/27 04:22:44;;;;;;;15.55;2.70;;;-0.70;99.90;;;;;;5007930;28;20401;-88
2022/01/27 04:25:13;;;;;;;4.67;2.13;;;-0.70;99.90;;;;;;5007583;28;20496;-88
2022/01/27 04:27:45;;;;;;;5.43;2.50;;;-0.70;99.90;;;;;;5007737;28;20948;-87
2022/01/27 04:30:19;;;;;;;9.95;2.00;;;-0.70;99.90;;;;;;5007681;28;20508;-88
2022/01/27 04:32:58;;;;;;;6.57;2.47;;;-0.60;99.90;;;;;;4992871;28;20419;-86
2022/01/27 04:35:30;;;;;;;11.07;2.58;;;-0.60;99.90;;;;;;5024201;28;20405;-87
2022/01/27 04:38:20;;;;;;;6.70;2.53;;;-0.60;99.90;;;;;;5007408;28;20440;-88
2022/01/27 04:43:27;;;;;;;9.85;2.72;;;-0.60;99.90;;;;;;4992554;28;20389;-88
2022/01/27 04:48:48;;;;;;;8.50;3.53;;;-0.50;99.90;;;;;;4991199;28;20458;-87
2022/01/27 04:51:18;;;;;;;23.88;3.35;;;-0.50;99.90;;;;;;4991132;28;20404;-87
2022/01/27 04:56:21;;;;;;;10.80;3.20;;;-0.50;99.90;;;;;;4992155;28;20421;-87
2022/01/27 04:58:54;;;;;;;9.88;3.40;;;-0.50;99.90;;;;;;4992275;28;20393;-87
2022/01/27 05:01:29;;;;;;;25.65;3.70;;;-0.50;99.90;;;;;;4992472;28;20777;-87
2022/01/27 05:04:03;;;;;;;25.42;3.63;;;-0.40;99.90;;;;;;4991235;28;20389;-88
2022/01/27 05:06:31;;;;;;;28.80;3.93;;;-0.40;99.90;;;;;;5023686;28;20467;-87
2022/01/27 05:08:59;;;;;;;13.63;3.88;;;-0.40;99.90;;;;;;5006995;28;20405;-86
2022/01/27 05:11:34;;;;;;;12.57;4.30;;;-0.40;99.90;;;;;;4998329;28;20457;-86
2022/01/27 05:14:18;;;;;;;22.80;5.68;;;-0.40;99.90;;;;;;5025978;28;20440;-86
2022/01/27 05:16:46;;;;;;;9.40;3.95;;;-0.40;99.90;;;;;;4991819;28;20454;-88
2022/01/27 05:19:15;;;;;;;14.93;5.10;;;-0.40;99.90;;;;;;4990782;28;20389;-87
2022/01/27 05:21:42;;;;;;;13.35;4.78;;;-0.30;99.90;;;;;;4991814;28;20389;-87
2022/01/27 05:24:10;;;;;;;14.73;5.72;;;-0.30;99.90;;;;;;4991826;28;20389;-85
2022/01/27 05:26:39;;;;;;;10.80;5.28;;;-0.30;99.90;;;;;;5007062;28;20401;-85
2022/01/27 05:29:11;;;;;;;13.20;5.00;;;-0.30;99.90;;;;;;5023201;28;20488;-85
2022/01/27 05:31:38;;;;;;;22.48;6.55;;;-0.30;99.90;;;;;;4991699;28;20494;-85
2022/01/27 05:34:06;;;;;;;17.70;6.10;;;-0.30;99.90;;;;;;4991571;28;20389;-86
2022/01/27 05:36:34;;;;;;;17.15;5.47;;;-0.30;99.90;;;;;;4991744;28;20396;-85
2022/01/27 05:39:03;;;;;;;17.85;6.25;;;-0.30;99.90;;;;;;5022750;28;20389;-86
2022/01/27 05:41:31;;;;;;;20.58;7.72;;;-0.30;99.90;;;;;;4990462;28;20393;-86
2022/01/27 05:43:59;;;;;;;14.00;5.72;;;-0.20;99.90;;;;;;4990328;28;20403;-86
2022/01/27 05:46:27;;;;;;;15.73;6.18;;;-0.20;99.90;;;;;;5022694;28;20404;-85
2022/01/27 05:48:55;;;;;;;14.32;5.30;;;-0.20;99.90;;;;;;4990497;28;20467;-86
2022/01/27 05:51:23;;;;;;;14.98;6.07;;;-0.30;99.90;;;;;;5022842;28;20442;-85
2022/01/27 05:53:50;;;;;;;17.77;6.30;;;-0.30;99.90;;;;;;4990146;28;20412;-86
2022/01/27 05:56:18;;;;;;;19.65;7.22;;;-0.30;99.90;;;;;;5017024;28;20816;-87
2022/01/27 05:58:46;;;;;;;15.95;7.05;;;-0.30;99.90;;;;;;5009733;28;20394;-85
2022/01/27 06:01:14;;;;;;;16.13;6.72;;;-0.30;99.90;;;;;;5010865;28;20495;-86
2022/01/27 06:03:42;;;;;;;25.80;13.60;;;-0.30;99.90;;;;;;5026443;28;20384;-87
2022/01/27 06:06:10;;;;;;;22.00;10.67;;;-0.30;99.90;;;;;;4993488;28;20403;-86
2022/01/27 06:08:37;;;;;;;17.27;6.47;;;-0.30;99.90;;;;;;5009186;28;20765;-87
2022/01/27 06:11:05;;;;;;;16.15;5.70;;;-0.30;99.90;;;;;;5009474;28;20417;-86
2022/01/27 06:13:33;;;;;;;15.60;5.80;;;-0.30;99.90;;;;;;4993346;28;20490;-87
2022/01/27 06:16:08;;;;;;;18.33;5.70;;;-0.30;99.90;;;;;;5009662;28;20509;-87
2022/01/27 06:18:37;;;;;;;16.15;6.07;;;-0.20;99.90;;;;;;5009755;28;20422;-87
2022/01/27 06:21:07;;;;;;;20.20;6.97;;;-0.30;99.90;;;;;;5009212;28;20403;-87
2022/01/27 06:23:34;;;;;;;18.73;6.47;;;-0.20;99.90;;;;;;5026127;28;20438;-87
2022/01/27 06:26:03;;;;;;;13.02;5.75;;;-0.30;99.90;;;;;;5009446;28;20889;-87
2022/01/27 06:28:30;;;;;;;17.67;6.75;;;-0.30;99.90;;;;;;5025828;28;20452;-87
2022/01/27 06:30:58;;;;;;;16.37;6.27;;;-0.20;99.90;;;;;;5042351;27;20762;-87
2022/01/27 06:33:26;;;;;;;23.00;6.97;;;-0.20;99.90;;;;;;5009488;28;20394;-86
2022/01/27 06:35:53;;;;;;;19.25;7.10;;;-0.20;99.90;;;;;;5009084;28;20407;-86
2022/01/27 06:38:21;;;;;;;18.30;6.68;;;-0.20;99.90;;;;;;5008823;28;20430;-87
2022/01/27 06:40:50;;;;;;;21.00;7.00;;;-0.20;99.90;;;;;;5008955;28;20471;-85
2022/01/27 06:43:17;;;;;;;18.75;6.57;;;-0.20;99.90;;;;;;5009195;28;20403;-86
2022/01/27 06:45:45;;;;;;;23.67;7.57;;;-0.10;99.90;;;;;;4992856;28;20399;-87
2022/01/27 06:48:13;;;;;;;22.27;7.18;;;-0.20;99.90;;;;;;5041766;28;20410;-87
2022/01/27 06:50:40;;;;;;;15.70;6.03;;;-0.20;99.90;;;;;;5009231;28;20395;-86
2022/01/27 06:53:09;;;;;;;19.77;6.95;;;-0.20;99.90;;;;;;5010328;28;20391;-85
2022/01/27 06:55:38;;;;;;;20.30;6.32;;;-0.10;99.90;;;;;;4992866;28;20822;-86
2022/01/27 06:58:06;;;;;;;19.20;5.07;;;-0.10;99.90;;;;;;5008752;28;20916;-86
2022/01/27 07:00:34;;;;;;;18.08;6.10;;;-0.10;99.90;;;;;;4992636;28;20408;-85
2022/01/27 07:03:01;;;;;;;17.77;6.28;;;-0.10;99.90;;;;;;5008637;28;20410;-86
2022/01/27 07:05:31;;;;;;;19.48;5.00;;;-0.10;99.90;;;;;;5009942;28;20398;-87
2022/01/27 07:08:00;;;;;;;19.98;5.10;;;-0.10;99.90;;;;;;5025027;28;20400;-87
2022/01/27 07:10:28;;;;;;;15.00;4.18;;;-0.10;99.90;;;;;;5009030;28;20401;-86
2022/01/27 07:12:56;;;;;;;17.85;4.32;;;-0.10;99.90;;;;;;5025075;28;20403;-85
2022/01/27 07:15:24;;;;;;;14.65;3.90;;;-0.10;99.90;;;;;;5008411;28;20407;-86
2022/01/27 07:17:52;;;;;;;18.53;4.70;;;-0.10;99.90;;;;;;5008516;28;20398;-86
2022/01/27 07:20:20;;;;;;;17.38;4.78;;;-0.10;99.90;;;;;;5008640;28;20462;-85
2022/01/27 07:22:47;;;;;;;14.27;4.93;;;-0.10;99.90;;;;;;5009536;28;20396;-86
2022/01/27 07:25:15;;;;;;;15.38;4.72;;;-0.10;99.90;;;;;;5009435;28;20387;-86
2022/01/27 07:27:44;;;;;;;15.65;4.47;;;-0.10;99.90;;;;;;5008687;28;20905;-85
2022/01/27 07:30:12;;;;;;;19.35;4.78;;;-0.10;99.90;;;;;;5009192;28;20669;-85
2022/01/27 07:32:40;;;;;;;19.70;5.00;;;-0.10;99.90;;;;;;5008199;28;20400;-85
2022/01/27 07:35:08;;;;;;;17.10;5.28;;;-0.10;99.90;;;;;;4991647;28;20419;-86
2022/01/27 07:37:37;;;;;;;19.27;5.38;;;-0.10;99.90;;;;;;5007978;28;20429;-86
2022/01/27 07:40:05;;;;;;;14.45;4.13;;;-0.10;99.90;;;;;;5008290;28;20396;-86
2022/01/27 07:42:33;;;;;;;17.23;5.05;;;-0.10;99.90;;;;;;5040722;28;20391;-83
2022/01/27 07:45:00;;;;;;;18.02;4.88;;;-0.10;99.90;;;;;;4991648;28;20460;-86
2022/01/27 07:47:28;;;;;;;23.58;5.60;;;-0.10;99.90;;;;;;5007971;28;20485;-85
2022/01/27 07:49:56;;;;;;;17.33;4.83;;;-0.10;99.90;;;;;;4991803;28;20403;-86
2022/01/27 07:52:24;;;;;;;18.50;4.40;;;-0.10;99.90;;;;;;5010573;28;20770;-85
2022/01/27 07:54:51;;;;;;;12.10;4.00;;;-0.10;99.90;;;;;;5012519;28;20395;-86
2022/01/27 07:57:19;;;;;;;16.75;4.38;;;-0.10;99.90;;;;;;5012566;28;20387;-86
2022/01/27 07:59:46;;;;;;;15.00;3.78;;;-0.10;99.90;;;;;;5011240;28;20394;-85
2022/01/27 08:02:14;;;;;;;14.32;4.22;;;-0.10;99.90;;;;;;5011229;28;20391;-86
2022/01/27 08:04:42;;;;;;;17.40;4.68;;;-0.10;99.90;;;;;;4995025;28;20419;-87
2022/01/27 08:07:10;;;;;;;19.38;5.68;;;-0.10;99.90;;;;;;5044268;27;20452;-84
2022/01/27 08:09:38;;;;;;;16.92;5.43;;;-0.10;99.90;;;;;;4995029;28;20422;-85
2022/01/27 08:12:06;;;;;;;14.68;5.40;;;-0.10;99.90;;;;;;5011061;28;20874;-86
2022/01/27 08:14:33;;;;;;;16.70;5.55;;;-0.10;99.90;;;;;;5027865;28;20414;-85
2022/01/27 08:17:01;;;;;;;19.23;6.03;;;-0.10;99.90;;;;;;5011381;28;20433;-84
2022/01/27 08:19:29;;;;;;;19.90;5.93;;;-0.10;99.90;;;;;;5011123;28;20387;-86
2022/01/27 08:21:56;;;;;;;16.55;5.80;;;-0.10;99.90;;;;;;5012238;28;20395;-86
2022/01/27 08:24:24;;;;;;;19.42;6.05;;;-0.10;99.90;;;;;;5011081;28;20390;-87
2022/01/27 08:26:58;;;;;;;23.20;6.22;;;-0.10;99.90;;;;;;5011223;28;20401;-85
2022/01/27 08:29:33;;;;;;;17.30;6.43;;;-0.10;99.90;;;;;;5011359;28;20391;-86
2022/01/27 08:32:44;;;;;;;20.75;6.38;;;-0.10;99.90;;;;;;5012392;28;20478;-86
2022/01/27 08:35:10;;;;;;;21.08;5.93;;;-0.10;99.90;;;;;;5013830;28;20887;-86
2022/01/27 08:37:38;;;;;;;16.08;5.60;;;0.00;99.90;;;;;;5011230;28;20464;-86
2022/01/27 08:40:07;;;;;;;20.40;6.00;;;-0.10;99.90;;;;;;4994865;28;20399;-87
2022/01/27 08:42:55;;;;;;;20.67;6.22;;;0.00;99.90;;;;;;5043978;28;20395;-87
2022/01/27 08:45:24;;;;;;;21.70;6.47;;;0.00;99.90;;;;;;5011982;28;20400;-86
2022/01/27 08:47:55;;;;;;;22.52;6.53;;;-0.10;99.90;;;;;;5007009;28;20407;-87
2022/01/27 08:50:24;;;;;;;20.08;6.10;;;0.00;99.90;;;;;;5007089;28;20898;-86
2022/01/27 08:52:52;;;;;;;19.30;5.90;;;0.00;99.90;;;;;;5007693;28;20390;-86
2022/01/27 08:55:21;;;;;;;21.73;6.40;;;0.00;99.90;;;;;;4993591;28;20401;-86
2022/01/27 08:57:50;;;;;;;19.58;6.45;;;0.00;99.90;;;;;;5027375;28;20798;-86
2022/01/27 09:00:21;;;;;;;20.03;6.57;;;0.00;99.90;;;;;;5043660;28;20457;-86
2022/01/27 09:02:51;;;;;;;25.25;6.30;;;0.00;99.90;;;;;;5043429;27;20399;-90
2022/01/27 09:05:19;;;;;;;23.30;6.47;;;0.00;99.90;;;;;;5023651;28;20413;-90
2022/01/27 09:07:47;;;;;;;27.50;6.85;;;0.00;99.90;;;;;;5010850;28;20446;-89
2022/01/27 09:10:15;;;;;;;19.40;6.15;;;0.00;99.90;;;;;;5027904;28;20434;-89
2022/01/27 09:12:44;;;;;;;18.97;5.70;;;0.00;99.90;;;;;;5027340;28;20414;-90
2022/01/27 09:15:11;;;;;;;23.23;6.07;;;0.00;99.90;;;;;;5017159;28;20404;-89
2022/01/27 09:17:40;;;;;;;20.58;6.05;;;0.00;99.90;;;;;;5007387;28;20890;-90
2022/01/27 09:20:10;;;;;;;23.13;5.18;;;0.00;99.90;;;;;;4991108;28;20425;-90
2022/01/27 09:22:38;;;;;;;29.98;6.65;;;0.00;99.90;;;;;;4991377;28;20386;-89
2022/01/27 09:25:13;;;;;;;21.73;5.78;;;0.10;99.90;;;;;;5007376;28;20937;-89
2022/01/27 09:27:43;;;;;;;27.10;6.43;;;0.00;99.90;;;;;;4991356;28;20399;-90
2022/01/27 09:30:12;;;;;;;29.63;7.45;;;0.10;99.90;;;;;;4990780;28;20427;-89
2022/01/27 09:32:40;;;;;;;21.67;6.18;;;0.10;99.90;;;;;;5008883;28;20480;-89
2022/01/27 09:35:09;;;;;;;26.35;9.13;;;0.00;99.90;;;;;;5046490;27;20392;-89
2022/01/27 09:37:38;;;;;;;25.08;7.45;;;0.10;99.90;;;;;;5022237;28;20433;-90
2022/01/27 09:40:07;;;;;;;21.15;6.50;;;0.10;99.90;;;;;;5012165;28;20408;-89
2022/01/27 09:42:37;;;;;;;25.08;6.25;;;0.10;99.90;;;;;;5014252;28;20413;-90
2022/01/27 09:45:08;;;;;;;24.27;6.20;;;0.10;99.90;;;;;;5001874;28;20437;-90
2022/01/27 09:47:40;;;;;;;28.73;6.45;;;0.10;99.90;;;;;;5010113;28;20415;-89
2022/01/27 09:50:23;;;;;;;25.63;8.32;;;0.10;99.90;;;;;;5013112;28;20431;-90
2022/01/27 09:52:50;;;;;;;24.27;9.67;;;0.10;99.90;;;;;;4990853;28;20393;-89
2022/01/27 09:55:18;;;;;;;31.42;12.43;;;0.10;99.90;;;;;;4990571;28;20400;-90
2022/01/27 09:57:46;;;;;;;28.33;11.30;;;0.10;99.90;;;;;;5007020;28;20396;-90
2022/01/27 10:00:15;;;;;;;29.13;10.35;;;0.10;99.90;;;;;;4974333;28;20405;-89
2022/01/27 10:03:07;;;;;;;23.23;7.47;;;0.10;99.90;;;;;;5023286;28;20409;-89
2022/01/27 10:05:37;;;;;;;30.23;8.50;;;0.10;99.90;;;;;;4974475;28;20504;-90
2022/01/27 10:08:10;;;;;;;25.38;7.22;;;0.20;99.90;;;;;;5038516;28;20798;-88
2022/01/27 10:10:41;;;;;;;26.95;5.50;;;0.20;99.90;;;;;;5025607;28;20491;-90
2022/01/27 10:13:11;;;;;;;25.23;5.50;;;0.20;99.90;;;;;;5022723;28;20397;-89
2022/01/27 10:15:46;;;;;;;27.77;5.57;;;0.20;99.90;;;;;;4990248;28;20409;-89
2022/01/27 10:18:24;;;;;;;22.30;5.23;;;0.20;99.90;;;;;;4990379;28;20405;-89
2022/01/27 10:21:02;;;;;;;24.33;5.00;;;0.20;99.90;;;;;;5023334;28;20409;-88
2022/01/27 10:23:33;;;;;;;24.35;4.80;;;0.20;99.90;;;;;;5006740;28;20503;-89
2022/01/27 10:26:13;;;;;;;23.83;4.83;;;0.20;99.90;;;;;;5006673;28;20450;-88
2022/01/27 10:29:06;;;;;;;20.20;4.70;;;0.20;99.90;;;;;;5006800;28;20920;-89
2022/01/27 10:31:39;;;;;;;18.63;4.23;;;0.20;99.90;;;;;;5026207;28;20414;-89
2022/01/27 10:34:10;;;;;;;23.90;4.90;;;0.20;99.90;;;;;;5019197;28;20466;-89
2022/01/27 10:36:40;;;;;;;22.08;4.82;;;0.20;99.90;;;;;;5019950;28;20476;-89
2022/01/27 10:39:22;;;;;;;22.40;5.40;;;0.20;99.90;;;;;;5024898;28;20445;-88
2022/01/27 10:42:08;;;;;;;27.92;5.57;;;0.20;99.90;;;;;;5009223;28;20437;-89
2022/01/27 10:44:42;;;;;;;22.95;4.85;;;0.20;99.90;;;;;;5030641;28;20751;-89
2022/01/27 10:47:26;;;;;;;25.60;4.80;;;0.20;99.90;;;;;;5016764;28;20413;-89
2022/01/27 10:49:59;;;;;;;24.95;5.53;;;0.20;99.90;;;;;;5006308;28;20409;-89
2022/01/27 10:53:05;;;;;;;26.38;4.75;;;0.20;99.90;;;;;;5006136;28;20424;-89
2022/01/27 10:55:25;;;;;;;31.27;6.60;;;0.30;99.90;;;;;;5006601;28;20416;-89
2022/01/27 10:57:53;;;;;;;28.88;6.15;;;0.30;99.90;;;;;;4989215;28;20409;-89
2022/01/27 11:00:23;;;;;;;27.85;6.10;;;0.30;99.90;;;;;;5006798;28;20403;-90
2022/01/27 11:03:01;;;;;;;24.70;7.32;;;0.30;99.90;;;;;;5009146;28;20928;-90
2022/01/27 11:05:32;;;;;;;30.33;6.60;;;0.30;99.90;;;;;;4992420;28;20415;-91
2022/01/27 11:08:00;;;;;;;24.67;5.63;;;0.30;99.90;;;;;;5008754;28;20464;-90
2022/01/27 11:10:30;;;;;;;22.73;5.05;;;0.40;99.90;;;;;;4988729;28;20483;-90
2022/01/27 11:12:59;;;;;;;21.80;5.10;;;0.30;99.90;;;;;;4984026;28;20488;-91
2022/01/27 11:15:27;;;;;;;22.52;5.30;;;0.40;99.90;;;;;;4990602;28;20436;-91
2022/01/27 11:17:55;;;;;;;23.75;5.20;;;0.40;99.90;;;;;;5008834;28;20468;-90
2022/01/27 11:20:58;;;;;;;26.20;5.00;;;0.40;99.90;;;;;;4994848;28;20439;-90
2022/01/27 11:26:11;;;;;;;19.88;4.53;;;0.40;99.90;;;;;;4989242;28;20413;-91
2022/01/27 11:28:43;;;;;;;26.58;4.80;;;0.40;99.90;;;;;;5005923;28;20420;-89
2022/01/27 11:31:13;;;;;;;21.58;4.45;;;0.40;99.90;;;;;;5010850;28;20500;-88
2022/01/27 11:33:45;;;;;;;29.83;5.00;;;0.50;99.90;;;;;;5008941;28;20415;-90
2022/01/27 11:36:18;;;;;;;24.50;5.78;;;0.40;99.90;;;;;;5024126;28;20460;-91
2022/01/27 11:38:46;;;;;;;22.77;5.13;;;0.40;99.90;;;;;;5001102;28;20408;-91
2022/01/27 11:41:38;;;;;;;29.88;6.13;;;0.40;99.90;;;;;;5008533;28;20819;-89
2022/01/27 11:44:37;;;;;;;54.08;7.10;;;0.50;99.90;;;;;;4991601;28;20586;-91
2022/01/27 11:49:59;;;;;;;35.47;5.45;;;0.50;99.90;;;;;;5037488;28;20409;-90
2022/01/27 11:52:32;;;;;;;31.42;6.28;;;0.50;99.90;;;;;;5017144;28;20456;-91
2022/01/27 11:55:37;;;;;;;31.63;4.57;;;0.50;99.90;;;;;;5021975;28;20430;-92
2022/01/27 11:58:19;;;;;;;17.77;4.37;;;0.50;99.90;;;;;;5013875;28;20458;-90
2022/01/27 12:01:10;;;;;;;24.65;6.18;;;0.50;99.90;;;;;;4989465;28;20432;-91
2022/01/27 12:03:39;;;;;;;27.70;5.30;;;0.50;99.90;;;;;;4985434;28;20495;-91
2022/01/27 12:06:13;;;;;;;15.00;4.18;;;0.50;99.90;;;;;;4984560;28;20405;-90
2022/01/27 12:08:42;;;;;;;27.85;5.50;;;0.50;99.90;;;;;;5003547;28;20425;-91
2022/01/27 12:11:49;;;;;;;23.80;4.85;;;0.50;99.90;;;;;;4976701;28;20458;-91
2022/01/27 12:14:22;;;;;;;17.97;4.97;;;0.50;99.90;;;;;;4999775;28;20406;-91
2022/01/27 12:17:08;;;;;;;18.90;4.60;;;0.50;99.90;;;;;;5006191;28;20504;-91
2022/01/27 12:19:51;;;;;;;17.73;4.23;;;0.50;99.90;;;;;;4989442;28;20854;-91
2022/01/27 12:22:50;;;;;;;14.73;4.07;;;0.50;99.90;;;;;;5005964;28;20405;-91
2022/01/27 12:25:19;;;;;;;27.87;4.97;;;0.50;99.90;;;;;;5007769;28;20931;-91
2022/01/27 12:27:58;;;;;;;13.20;5.03;;;0.50;99.90;;;;;;4991059;28;20412;-91
2022/01/27 12:30:26;;;;;;;16.70;3.88;;;0.50;99.90;;;;;;5008336;28;20415;-90
2022/01/27 12:32:55;;;;;;;22.70;4.27;;;0.60;99.90;;;;;;4992165;28;20640;-91
2022/01/27 12:35:23;;;;;;;23.83;4.43;;;0.60;99.90;;;;;;5008495;28;20468;-90
2022/01/27 12:37:52;;;;;;;25.17;4.53;;;0.50;99.90;;;;;;4986176;28;20416;-90
2022/01/27 12:40:28;;;;;;;51.22;5.22;;;0.60;99.90;;;;;;5037153;28;20441;-90
2022/01/27 12:43:00;;;;;;;18.40;4.28;;;0.60;99.90;;;;;;4994034;28;20411;-90
2022/01/27 12:45:30;;;;;;;17.85;4.10;;;0.60;99.90;;;;;;5016606;28;20405;-89
2022/01/27 12:48:07;;;;;;;15.18;4.15;;;0.60;99.90;;;;;;5006143;28;20431;-89
2022/01/27 12:50:37;;;;;;;12.57;3.53;;;0.60;99.90;;;;;;5002485;28;20446;-89
2022/01/27 12:53:13;;;;;;;17.13;4.78;;;0.60;99.90;;;;;;4988518;28;20498;-89
2022/01/27 12:55:44;;;;;;;31.00;4.73;;;0.60;99.90;;;;;;5018199;28;20395;-89
2022/01/27 12:58:17;;;;;;;38.95;5.10;;;0.60;99.90;;;;;;5021089;28;20494;-88
2022/01/27 13:00:47;;;;;;;39.00;6.18;;;0.60;99.90;;;;;;5007226;28;20403;-89
2022/01/27 13:03:16;;;;;;;54.10;6.88;;;0.60;99.90;;;;;;4992421;28;20436;-88
2022/01/27 13:05:50;;;;;;;69.22;7.82;;;0.60;99.90;;;;;;4993566;28;20412;-90
2022/01/27 13:08:21;;;;;;;70.70;7.57;;;0.70;99.90;;;;;;5017967;28;20474;-91
2022/01/27 13:10:56;;;;;;;51.05;5.50;;;0.70;99.90;;;;;;5018709;28;20417;-89
2022/01/27 13:13:28;;;;;;;37.05;6.38;;;0.70;99.90;;;;;;5020664;28;20464;-88
2022/01/27 13:16:03;;;;;;;85.23;8.40;;;0.70;99.90;;;;;;4993057;28;20645;-90
2022/01/27 13:18:42;;;;;;;61.80;6.63;;;0.70;99.90;;;;;;5029013;28;20493;-89
2022/01/27 13:21:25;;;;;;;22.33;5.38;;;0.70;99.90;;;;;;5018580;28;20404;-89
2022/01/27 13:24:08;;;;;;;28.33;7.05;;;0.70;99.90;;;;;;5008717;28;20411;-89
2022/01/27 13:26:36;;;;;;;21.65;6.25;;;0.70;99.90;;;;;;4994358;28;20442;-88
2022/01/27 13:29:04;;;;;;;35.63;6.57;;;0.70;99.90;;;;;;4991179;28;20407;-88
2022/01/27 13:31:33;;;;;;;59.80;28.90;;;0.70;99.90;;;;;;5010584;28;20427;-89
2022/01/27 13:34:03;;;;;;;85.93;9.48;;;0.70;99.90;;;;;;5010597;28;20498;-89
2022/01/27 13:36:35;;;;;;;37.47;7.50;;;0.70;99.90;;;;;;5026570;28;20421;-91
2022/01/27 13:41:43;;;;;;;23.90;6.13;;;0.70;99.90;;;;;;5043826;28;20693;-89
2022/01/27 13:44:17;;;;;;;15.55;6.30;;;0.70;99.90;;;;;;5010344;28;20399;-89
2022/01/27 13:46:48;;;;;;;23.23;5.97;;;0.70;99.90;;;;;;5026921;28;20403;-89
2022/01/27 13:49:30;;;;;;;15.85;5.82;;;0.70;99.90;;;;;;4988875;28;20484;-90
2022/01/27 13:52:07;;;;;;;16.25;7.85;;;0.70;99.90;;;;;;5006862;28;20409;-90
2022/01/27 13:54:43;;;;;;;14.15;5.38;;;0.70;99.90;;;;;;5020223;28;20514;-89